Time;durP1;ratioP1;P1;durP2;ratioP2;P2;SDS_P1;SDS_P2;PMS_P1;PMS_P2;Temp;Humidity;BMP_temperature;BMP_pressure;BME280_temperature;BME280_humidity;BME280_pressure;Samples;Min_cycle;Max_cycle;Signal;HPM_P1;HPM_P2
2022/08/30 00:01:01;;;;;;;7.55;5.78;;;15.40;99.90;;;;;;4990628;28;20099;-68
2022/08/30 00:03:39;;;;;;;7.30;5.82;;;15.40;99.90;;;;;;5009165;28;20153;-68
2022/08/30 00:06:06;;;;;;;6.38;5.70;;;15.30;99.90;;;;;;4995091;28;20130;-68
2022/08/30 00:08:33;;;;;;;9.05;5.68;;;15.30;99.90;;;;;;4993736;28;20030;-68
2022/08/30 00:11:00;;;;;;;10.00;5.95;;;15.30;99.90;;;;;;4999136;28;20037;-68
2022/08/30 00:13:26;;;;;;;6.97;5.45;;;15.30;99.90;;;;;;4993633;28;20084;-68
2022/08/30 00:15:52;;;;;;;10.20;6.75;;;15.30;99.90;;;;;;5010921;28;20394;-68
2022/08/30 00:18:19;;;;;;;7.63;5.93;;;15.30;99.90;;;;;;5011042;28;20050;-68
2022/08/30 00:20:46;;;;;;;9.82;5.90;;;15.30;99.90;;;;;;4992692;28;20049;-68
2022/08/30 00:23:13;;;;;;;9.38;6.70;;;15.20;99.90;;;;;;4996941;28;21383;-68
2022/08/30 00:25:39;;;;;;;8.88;5.40;;;15.20;99.90;;;;;;4994644;28;20046;-68
2022/08/30 00:28:05;;;;;;;6.50;5.70;;;15.20;99.90;;;;;;5013520;28;20482;-68
2022/08/30 00:30:31;;;;;;;9.23;6.45;;;15.20;99.90;;;;;;5012547;28;20072;-68
2022/08/30 00:32:58;;;;;;;6.95;5.60;;;15.20;99.90;;;;;;4993808;28;20069;-68
2022/08/30 00:35:24;;;;;;;6.88;5.90;;;15.20;99.90;;;;;;5009357;28;20056;-68
2022/08/30 00:37:50;;;;;;;7.38;5.88;;;15.20;99.90;;;;;;4993814;28;20046;-68
2022/08/30 00:40:19;;;;;;;8.80;5.95;;;15.20;99.90;;;;;;5011008;28;20038;-68
2022/08/30 00:42:46;;;;;;;8.45;6.30;;;15.10;99.90;;;;;;4993814;28;20066;-68
2022/08/30 00:45:15;;;;;;;8.10;5.70;;;15.10;99.90;;;;;;4993002;28;20060;-68
2022/08/30 00:47:41;;;;;;;8.73;6.53;;;15.10;99.90;;;;;;4994792;28;20120;-68
2022/08/30 00:50:08;;;;;;;10.55;5.97;;;15.10;99.90;;;;;;5011103;28;20495;-68
2022/08/30 00:52:37;;;;;;;8.25;6.35;;;15.10;99.90;;;;;;5011126;28;20115;-68
2022/08/30 00:55:04;;;;;;;13.40;6.22;;;15.10;99.90;;;;;;4992894;28;20053;-68
2022/08/30 00:57:30;;;;;;;8.73;6.18;;;15.00;99.90;;;;;;4978343;28;20041;-68
2022/08/30 00:59:57;;;;;;;6.97;6.25;;;15.00;99.90;;;;;;5012148;28;20034;-68
2022/08/30 01:02:24;;;;;;;8.30;5.78;;;15.00;99.90;;;;;;5007684;28;20084;-68
2022/08/30 01:04:50;;;;;;;7.32;6.38;;;15.00;99.90;;;;;;4992320;28;20487;-68
2022/08/30 01:07:17;;;;;;;9.43;6.50;;;14.90;99.90;;;;;;5011467;28;21129;-68
2022/08/30 01:09:43;;;;;;;8.43;6.05;;;14.90;99.90;;;;;;5011454;28;20113;-68
2022/08/30 01:12:10;;;;;;;8.68;6.03;;;15.00;99.90;;;;;;5009076;28;20855;-68
2022/08/30 01:14:36;;;;;;;8.25;6.32;;;15.00;99.90;;;;;;5008613;28;20125;-68
2022/08/30 01:17:03;;;;;;;8.75;6.28;;;14.90;99.90;;;;;;5008073;28;20038;-69
2022/08/30 01:19:56;;;;;;;8.80;6.30;;;14.80;99.90;;;;;;5010518;28;20478;-68
2022/08/30 01:22:31;;;;;;;7.40;6.53;;;14.90;99.90;;;;;;5007974;28;20153;-68
2022/08/30 01:24:59;;;;;;;8.27;6.25;;;14.80;99.90;;;;;;5008959;28;20041;-68
2022/08/30 01:27:26;;;;;;;10.13;6.47;;;14.80;99.90;;;;;;4994344;28;20124;-68
2022/08/30 01:29:53;;;;;;;7.30;6.03;;;14.80;99.90;;;;;;5011137;28;20501;-68
2022/08/30 01:32:22;;;;;;;8.20;6.60;;;14.70;99.90;;;;;;5013708;28;20430;-70
2022/08/30 01:34:48;;;;;;;7.88;6.68;;;14.60;99.90;;;;;;5013658;28;20514;-68
2022/08/30 01:37:18;;;;;;;7.70;6.38;;;14.60;99.90;;;;;;5012162;28;20046;-68
2022/08/30 01:39:47;;;;;;;8.50;7.07;;;14.60;99.90;;;;;;5008877;28;20042;-68
2022/08/30 01:42:16;;;;;;;7.38;6.65;;;14.60;99.90;;;;;;5013035;28;20041;-68
2022/08/30 01:44:43;;;;;;;8.35;6.55;;;14.50;99.90;;;;;;5012112;28;20457;-68
2022/08/30 01:47:09;;;;;;;8.00;6.78;;;14.50;99.90;;;;;;5013471;28;20527;-68
2022/08/30 01:49:36;;;;;;;9.20;6.32;;;14.40;99.90;;;;;;5012940;28;20042;-68
2022/08/30 01:52:03;;;;;;;8.07;6.05;;;14.40;99.90;;;;;;5014224;28;20034;-68
2022/08/30 01:54:36;;;;;;;9.07;6.65;;;14.30;99.90;;;;;;4977307;28;20049;-68
2022/08/30 01:57:02;;;;;;;8.10;6.30;;;14.40;99.90;;;;;;5012023;28;20053;-68
2022/08/30 01:59:29;;;;;;;8.27;6.47;;;14.40;99.90;;;;;;5010685;28;20038;-68
2022/08/30 02:01:54;;;;;;;7.45;6.03;;;14.30;99.90;;;;;;4994071;28;20346;-68
2022/08/30 02:04:20;;;;;;;7.50;6.47;;;14.30;99.90;;;;;;5013111;28;20053;-68
2022/08/30 02:06:46;;;;;;;8.50;6.60;;;14.20;99.90;;;;;;5012088;28;20038;-68
2022/08/30 02:09:12;;;;;;;8.57;7.07;;;14.20;99.90;;;;;;5009168;28;20189;-68
2022/08/30 02:11:38;;;;;;;10.50;7.15;;;14.20;99.90;;;;;;5013329;28;20091;-68
2022/08/30 02:14:05;;;;;;;11.30;6.97;;;14.20;99.90;;;;;;5010562;28;20135;-68
2022/08/30 02:16:31;;;;;;;9.98;8.32;;;14.10;99.90;;;;;;5013225;28;20131;-68
2022/08/30 02:18:57;;;;;;;7.90;7.07;;;14.20;99.90;;;;;;5013248;28;20061;-68
2022/08/30 02:21:26;;;;;;;11.65;7.22;;;14.10;99.90;;;;;;5010289;28;20118;-68
2022/08/30 02:23:52;;;;;;;9.32;6.35;;;14.20;99.90;;;;;;5004296;28;20096;-68
2022/08/30 02:26:19;;;;;;;7.43;6.30;;;14.10;99.90;;;;;;5013375;28;20144;-68
2022/08/30 02:28:45;;;;;;;11.23;6.85;;;14.10;99.90;;;;;;4993053;28;20054;-68
2022/08/30 02:31:11;;;;;;;9.55;7.28;;;14.10;99.90;;;;;;5011878;28;20624;-68
2022/08/30 02:33:37;;;;;;;8.70;6.88;;;14.10;99.90;;;;;;4994556;28;20042;-68
2022/08/30 02:36:05;;;;;;;9.77;7.55;;;14.10;99.90;;;;;;5025443;28;20041;-68
2022/08/30 02:38:31;;;;;;;10.55;7.38;;;14.00;99.90;;;;;;5012459;28;20064;-68
2022/08/30 02:40:57;;;;;;;11.85;7.75;;;14.00;99.90;;;;;;5012824;28;20463;-68
2022/08/30 02:43:23;;;;;;;9.57;8.35;;;14.00;99.90;;;;;;5018271;28;20037;-68
2022/08/30 02:45:49;;;;;;;13.32;7.30;;;14.00;99.90;;;;;;5008643;28;20045;-68
2022/08/30 02:48:14;;;;;;;10.05;7.40;;;14.00;99.90;;;;;;5012839;28;20522;-68
2022/08/30 02:50:42;;;;;;;9.40;7.10;;;14.00;99.90;;;;;;5002260;28;20080;-68
2022/08/30 02:53:08;;;;;;;13.57;7.43;;;14.00;99.90;;;;;;5013173;28;20065;-68
2022/08/30 02:55:34;;;;;;;10.45;8.05;;;13.90;99.90;;;;;;4992091;28;20084;-68
2022/08/30 02:57:59;;;;;;;9.57;7.20;;;14.00;99.90;;;;;;5012451;28;20080;-68
2022/08/30 03:00:25;;;;;;;9.25;7.07;;;13.90;99.90;;;;;;4994454;28;20038;-68
2022/08/30 03:02:51;;;;;;;9.73;7.43;;;13.90;99.90;;;;;;4994276;28;20541;-68
2022/08/30 03:05:17;;;;;;;10.80;8.15;;;13.90;99.90;;;;;;5009930;28;20061;-68
2022/08/30 03:07:47;;;;;;;9.13;7.38;;;13.80;99.90;;;;;;5011112;28;20061;-68
2022/08/30 03:10:14;;;;;;;9.18;7.80;;;13.80;99.90;;;;;;4977488;28;20088;-68
2022/08/30 03:12:41;;;;;;;8.13;7.22;;;13.70;99.90;;;;;;5010564;28;20029;-68
2022/08/30 03:15:11;;;;;;;9.50;7.63;;;13.70;99.90;;;;;;4990947;28;20038;-68
2022/08/30 03:17:38;;;;;;;8.73;7.15;;;13.80;99.90;;;;;;5007503;28;20074;-68
2022/08/30 03:20:05;;;;;;;12.73;7.15;;;13.60;99.90;;;;;;5010544;28;20099;-68
2022/08/30 03:22:31;;;;;;;9.57;7.60;;;13.60;99.90;;;;;;4993970;28;20038;-69
2022/08/30 03:24:58;;;;;;;9.75;7.25;;;13.60;99.90;;;;;;5009046;28;20395;-68
2022/08/30 03:27:24;;;;;;;11.57;7.13;;;13.50;99.90;;;;;;5011945;28;20041;-68
2022/08/30 03:29:50;;;;;;;10.13;7.40;;;13.50;99.90;;;;;;5011199;28;20125;-68
2022/08/30 03:32:16;;;;;;;9.80;7.60;;;13.40;99.90;;;;;;5012579;28;20124;-68
2022/08/30 03:34:42;;;;;;;9.02;7.05;;;13.40;99.90;;;;;;5009693;28;20121;-68
2022/08/30 03:37:08;;;;;;;11.10;7.47;;;13.30;99.90;;;;;;4992243;28;20065;-68
2022/08/30 03:39:34;;;;;;;8.15;6.85;;;13.20;99.90;;;;;;5011556;28;20052;-69
2022/08/30 03:41:59;;;;;;;8.73;7.30;;;13.20;99.90;;;;;;5009506;28;20060;-68
2022/08/30 03:44:25;;;;;;;9.35;7.85;;;13.20;99.90;;;;;;5002767;28;20049;-68
2022/08/30 03:46:51;;;;;;;9.70;8.02;;;13.10;99.90;;;;;;4992116;28;20092;-68
2022/08/30 03:49:18;;;;;;;12.25;8.63;;;13.20;99.90;;;;;;5009446;28;20038;-69
2022/08/30 03:51:44;;;;;;;11.27;8.02;;;13.10;99.90;;;;;;5010219;28;20038;-68
2022/08/30 03:54:10;;;;;;;12.05;8.95;;;13.10;99.90;;;;;;5010441;28;20042;-68
2022/08/30 03:56:36;;;;;;;10.95;8.30;;;13.00;99.90;;;;;;5012910;28;20487;-68
2022/08/30 03:59:03;;;;;;;9.85;8.23;;;13.00;99.90;;;;;;4993016;28;20083;-68
2022/08/30 04:01:28;;;;;;;11.77;8.73;;;13.00;99.90;;;;;;5011175;28;20130;-68
2022/08/30 04:03:55;;;;;;;12.77;8.90;;;13.00;99.90;;;;;;5012340;28;20509;-68
2022/08/30 04:06:22;;;;;;;10.48;8.70;;;12.90;99.90;;;;;;4998390;28;20046;-68
2022/08/30 04:08:47;;;;;;;10.70;8.77;;;12.90;99.90;;;;;;5011905;28;20037;-68
2022/08/30 04:11:15;;;;;;;14.07;9.80;;;12.80;99.90;;;;;;5010416;28;20045;-68
2022/08/30 04:13:41;;;;;;;11.45;8.75;;;12.80;99.90;;;;;;4996569;28;20038;-68
2022/08/30 04:16:08;;;;;;;12.45;9.10;;;12.80;99.90;;;;;;5008306;28;20034;-68
2022/08/30 04:18:34;;;;;;;10.95;8.98;;;12.70;99.90;;;;;;5013782;28;20128;-68
2022/08/30 04:21:02;;;;;;;9.40;8.13;;;12.70;99.90;;;;;;4989630;28;20046;-68
2022/08/30 04:23:27;;;;;;;14.00;9.18;;;12.70;99.90;;;;;;5007797;28;20569;-68
2022/08/30 04:25:54;;;;;;;11.57;8.88;;;12.70;99.90;;;;;;5009672;28;21029;-68
2022/08/30 04:28:20;;;;;;;12.20;8.32;;;12.60;99.90;;;;;;5010298;28;20041;-68
2022/08/30 04:30:46;;;;;;;12.38;8.95;;;12.60;99.90;;;;;;5008920;28;20517;-68
2022/08/30 04:33:13;;;;;;;10.77;9.00;;;12.50;99.90;;;;;;5011489;28;20069;-68
2022/08/30 04:35:45;;;;;;;13.52;9.55;;;12.50;99.90;;;;;;5010140;28;20419;-68
2022/08/30 04:38:15;;;;;;;12.10;9.68;;;12.50;99.90;;;;;;5010052;28;20074;-68
2022/08/30 04:40:43;;;;;;;11.70;10.00;;;12.50;99.90;;;;;;5010959;28;20042;-68
2022/08/30 04:43:10;;;;;;;12.02;9.18;;;12.40;99.90;;;;;;5008823;28;20041;-68
2022/08/30 04:45:38;;;;;;;10.90;9.10;;;12.40;99.90;;;;;;5010187;28;20499;-68
2022/08/30 04:48:05;;;;;;;13.77;9.60;;;12.30;99.90;;;;;;5013595;28;20050;-68
2022/08/30 04:50:31;;;;;;;12.73;9.48;;;12.30;99.90;;;;;;5012282;28;20041;-68
2022/08/30 04:52:57;;;;;;;12.07;9.10;;;12.30;99.90;;;;;;4995063;28;20133;-68
2022/08/30 04:55:24;;;;;;;14.13;9.63;;;12.30;99.90;;;;;;4994621;28;20731;-70
2022/08/30 04:57:51;;;;;;;14.77;10.52;;;12.30;99.90;;;;;;5014257;28;20044;-68
2022/08/30 05:00:19;;;;;;;12.10;9.40;;;12.30;99.90;;;;;;4978573;28;20030;-68
2022/08/30 05:02:46;;;;;;;15.65;10.15;;;12.20;99.90;;;;;;4978780;28;20704;-68
2022/08/30 05:07:57;;;;;;;12.85;9.73;;;12.20;99.90;;;;;;5013668;28;20045;-68
2022/08/30 05:10:24;;;;;;;13.55;10.10;;;12.20;99.90;;;;;;5018885;28;20034;-68
2022/08/30 05:12:49;;;;;;;13.60;10.38;;;12.20;99.90;;;;;;5016235;28;20112;-68
2022/08/30 05:15:15;;;;;;;12.45;9.48;;;12.20;99.90;;;;;;4981850;28;20045;-68
2022/08/30 05:17:41;;;;;;;11.38;9.50;;;12.20;99.90;;;;;;5010537;28;20037;-68
2022/08/30 05:20:09;;;;;;;13.25;10.02;;;12.20;99.90;;;;;;5007983;28;20042;-68
2022/08/30 05:22:36;;;;;;;13.80;11.20;;;12.20;99.90;;;;;;4992815;28;20038;-68
2022/08/30 05:25:02;;;;;;;12.93;10.85;;;12.20;99.90;;;;;;5021223;28;20129;-68
2022/08/30 05:27:28;;;;;;;14.65;10.68;;;12.20;99.90;;;;;;5013945;28;20046;-68
2022/08/30 05:29:54;;;;;;;12.18;9.93;;;12.20;99.90;;;;;;4979915;28;20057;-68
2022/08/30 05:32:20;;;;;;;15.25;10.25;;;12.20;99.90;;;;;;4995935;28;20046;-68
2022/08/30 05:34:46;;;;;;;12.55;10.48;;;12.20;99.90;;;;;;4979251;28;20226;-68
2022/08/30 05:37:12;;;;;;;12.52;10.73;;;12.10;99.90;;;;;;5012366;28;20038;-68
2022/08/30 05:39:37;;;;;;;11.75;9.73;;;12.20;99.90;;;;;;5015921;28;20034;-68
2022/08/30 05:42:03;;;;;;;11.95;9.43;;;12.20;99.90;;;;;;5011438;28;20569;-68
2022/08/30 05:44:29;;;;;;;14.07;10.02;;;12.20;99.90;;;;;;5013896;28;20038;-68
2022/08/30 05:46:54;;;;;;;11.40;9.27;;;12.20;99.90;;;;;;5008322;28;20042;-68
2022/08/30 05:49:20;;;;;;;14.18;9.85;;;12.20;99.90;;;;;;5009450;28;20046;-68
2022/08/30 05:51:46;;;;;;;13.30;9.05;;;12.20;99.90;;;;;;5011522;28;20076;-68
2022/08/30 05:54:13;;;;;;;15.07;10.10;;;12.30;99.90;;;;;;5013324;28;20569;-68
2022/08/30 05:56:43;;;;;;;12.93;10.30;;;12.30;99.90;;;;;;4991870;28;20356;-68
2022/08/30 05:59:08;;;;;;;12.90;9.80;;;12.30;99.90;;;;;;4994359;28;20522;-68
2022/08/30 06:01:43;;;;;;;16.20;9.30;;;12.40;99.90;;;;;;5002576;28;20045;-68
2022/08/30 06:04:11;;;;;;;11.20;9.30;;;12.40;99.90;;;;;;4996992;28;20445;-68
2022/08/30 06:06:39;;;;;;;12.77;9.30;;;12.50;99.90;;;;;;5012539;28;20038;-68
2022/08/30 06:09:07;;;;;;;11.35;9.07;;;12.50;99.90;;;;;;5014365;28;20368;-68
2022/08/30 06:11:33;;;;;;;12.50;8.93;;;12.60;99.90;;;;;;4996662;28;20041;-68
2022/08/30 06:14:00;;;;;;;10.98;9.10;;;12.70;99.90;;;;;;4994864;28;20042;-68
2022/08/30 06:16:27;;;;;;;12.10;8.80;;;12.70;99.90;;;;;;5013980;28;20032;-68
2022/08/30 06:18:54;;;;;;;11.82;9.00;;;12.80;99.90;;;;;;4994033;28;20044;-68
2022/08/30 06:21:23;;;;;;;13.18;9.55;;;12.90;99.90;;;;;;4999856;28;20038;-68
2022/08/30 06:23:49;;;;;;;11.73;9.30;;;13.00;99.90;;;;;;5012451;28;20396;-68
2022/08/30 06:26:15;;;;;;;11.88;9.00;;;13.00;99.90;;;;;;5013198;28;20113;-68
2022/08/30 06:28:42;;;;;;;10.60;8.98;;;13.10;99.90;;;;;;5012734;28;20049;-68
2022/08/30 06:31:09;;;;;;;9.77;8.43;;;13.20;99.90;;;;;;5013919;28;20408;-68
2022/08/30 06:33:35;;;;;;;11.85;8.45;;;13.30;99.90;;;;;;5012449;28;20054;-68
2022/08/30 06:36:07;;;;;;;11.65;8.57;;;13.40;99.90;;;;;;4995339;28;20045;-68
2022/08/30 06:38:33;;;;;;;9.73;8.10;;;13.50;99.90;;;;;;4975370;28;20088;-68
2022/08/30 06:40:58;;;;;;;11.70;9.02;;;13.60;99.90;;;;;;5010477;28;20122;-68
2022/08/30 06:43:24;;;;;;;9.40;7.45;;;13.70;99.90;;;;;;4995369;28;20487;-68
2022/08/30 06:45:50;;;;;;;11.50;8.55;;;13.80;99.90;;;;;;5007161;28;20411;-68
2022/08/30 06:48:16;;;;;;;9.52;7.60;;;13.90;99.90;;;;;;4971046;28;20582;-68
2022/08/30 06:50:42;;;;;;;9.50;6.78;;;13.90;99.90;;;;;;5006640;28;20030;-68
2022/08/30 06:53:08;;;;;;;8.95;7.40;;;14.10;99.90;;;;;;5013479;28;20109;-68
2022/08/30 06:55:34;;;;;;;9.70;7.57;;;14.10;99.90;;;;;;5009722;28;20049;-68
2022/08/30 06:58:01;;;;;;;9.95;6.95;;;14.20;99.90;;;;;;5006763;28;20041;-68
2022/08/30 07:00:27;;;;;;;7.28;5.32;;;14.30;99.90;;;;;;5001784;28;20489;-68
2022/08/30 07:02:53;;;;;;;8.40;5.97;;;14.50;99.90;;;;;;4967198;28;20041;-68
2022/08/30 07:05:22;;;;;;;8.07;5.45;;;14.60;99.90;;;;;;5000142;28;20528;-68
2022/08/30 07:07:52;;;;;;;5.68;3.92;;;14.70;99.90;;;;;;5000140;28;20054;-68
2022/08/30 07:10:18;;;;;;;6.10;3.95;;;14.90;99.90;;;;;;4986302;28;20049;-68
2022/08/30 07:12:43;;;;;;;5.13;3.70;;;15.00;99.90;;;;;;4987242;28;20048;-68
2022/08/30 07:15:09;;;;;;;4.82;3.72;;;15.20;99.90;;;;;;5000245;28;20501;-69
2022/08/30 07:20:20;;;;;;;4.07;3.35;;;15.50;99.90;;;;;;4986634;28;20118;-68
2022/08/30 07:22:47;;;;;;;4.03;3.08;;;15.70;99.90;;;;;;5000420;28;20100;-68
2022/08/30 07:25:14;;;;;;;5.00;2.75;;;15.80;99.90;;;;;;4985602;28;20056;-68
2022/08/30 07:27:41;;;;;;;3.65;2.65;;;16.00;99.90;;;;;;4986710;28;20104;-68
2022/08/30 07:30:07;;;;;;;3.03;2.47;;;16.20;99.90;;;;;;5003828;28;20044;-68
2022/08/30 07:32:33;;;;;;;3.75;2.70;;;16.30;99.90;;;;;;5006085;28;20038;-69
2022/08/30 07:34:59;;;;;;;4.07;2.80;;;16.50;99.90;;;;;;5005632;28;20109;-69
2022/08/30 07:37:25;;;;;;;4.50;2.70;;;16.60;99.90;;;;;;5006819;28;20410;-66
2022/08/30 07:39:51;;;;;;;3.80;2.85;;;16.80;99.90;;;;;;5003464;28;20037;-66
2022/08/30 07:42:17;;;;;;;5.00;2.80;;;17.00;99.90;;;;;;4985857;28;20029;-68
2022/08/30 07:44:43;;;;;;;4.20;3.03;;;17.10;99.90;;;;;;5010148;28;20045;-68
2022/08/30 07:47:09;;;;;;;3.63;2.42;;;17.20;99.90;;;;;;5010873;28;20042;-68
2022/08/30 07:49:36;;;;;;;6.38;2.80;;;17.30;99.90;;;;;;4996380;28;20045;-68
2022/08/30 07:52:02;;;;;;;6.18;2.60;;;17.40;99.90;;;;;;4992906;28;20042;-68
2022/08/30 07:54:28;;;;;;;4.80;2.75;;;17.60;99.90;;;;;;4995016;28;20125;-68
2022/08/30 07:56:54;;;;;;;6.18;2.55;;;17.70;99.90;;;;;;5009307;28;20574;-68
2022/08/30 07:59:21;;;;;;;5.22;2.83;;;17.80;99.90;;;;;;4993316;28;20038;-68
2022/08/30 08:01:47;;;;;;;6.60;2.80;;;17.90;99.90;;;;;;4993940;28;20041;-68
2022/08/30 08:04:13;;;;;;;6.68;2.75;;;17.90;99.90;;;;;;4962283;28;20435;-67
2022/08/30 08:06:39;;;;;;;5.03;2.58;;;18.00;99.90;;;;;;4993585;28;20042;-68
2022/08/30 08:09:06;;;;;;;5.13;2.33;;;18.10;99.90;;;;;;4960469;28;20037;-67
2022/08/30 08:11:33;;;;;;;3.63;2.40;;;18.20;99.90;;;;;;4994646;28;20462;-68
2022/08/30 08:14:00;;;;;;;4.07;2.13;;;18.30;99.90;;;;;;5016591;28;20038;-68
2022/08/30 08:16:28;;;;;;;5.28;2.33;;;18.40;99.90;;;;;;5006923;28;20091;-68
2022/08/30 08:18:54;;;;;;;3.38;2.47;;;18.60;99.90;;;;;;4995659;28;20239;-68
2022/08/30 08:21:22;;;;;;;7.85;2.58;;;18.80;99.90;;;;;;4977024;28;20030;-68
2022/08/30 08:23:48;;;;;;;3.75;2.35;;;19.00;99.90;;;;;;5016151;28;20068;-68
2022/08/30 08:26:14;;;;;;;4.05;2.10;;;19.00;99.90;;;;;;5014867;28;20177;-68
2022/08/30 08:28:40;;;;;;;4.18;2.13;;;19.10;99.90;;;;;;5010948;28;20529;-68
2022/08/30 08:31:23;;;;;;;2.75;2.00;;;19.10;99.90;;;;;;5020885;28;20379;-67
2022/08/30 08:33:49;;;;;;;3.83;1.80;;;19.30;99.90;;;;;;5001713;28;20112;-68
2022/08/30 08:36:15;;;;;;;3.42;1.80;;;19.20;99.90;;;;;;5016714;28;20042;-68
2022/08/30 08:38:41;;;;;;;3.97;1.77;;;19.20;99.90;;;;;;5013965;28;20037;-68
2022/08/30 08:41:18;;;;;;;4.07;1.95;;;19.30;99.90;;;;;;4997767;28;20037;-68
2022/08/30 08:43:44;;;;;;;5.10;2.15;;;19.30;99.90;;;;;;5016567;28;20044;-68
2022/08/30 08:46:19;;;;;;;4.30;1.88;;;19.40;99.90;;;;;;4996552;28;20034;-68
2022/08/30 08:48:50;;;;;;;2.35;1.77;;;19.40;99.90;;;;;;5015249;28;20049;-69
2022/08/30 08:54:27;;;;;;;4.28;1.75;;;19.50;99.90;;;;;;5015183;28;20045;-68
2022/08/30 08:56:53;;;;;;;5.40;2.17;;;19.60;99.90;;;;;;5000750;28;20038;-68
2022/08/30 08:59:19;;;;;;;4.78;1.75;;;19.90;99.90;;;;;;5019872;28;20037;-68
2022/08/30 09:01:46;;;;;;;3.22;1.48;;;19.90;99.90;;;;;;5016478;28;20037;-68
2022/08/30 09:04:19;;;;;;;2.97;1.30;;;20.10;99.90;;;;;;4996331;28;20511;-68
2022/08/30 09:06:49;;;;;;;5.72;1.80;;;20.20;99.90;;;;;;4981513;28;20040;-68
2022/08/30 09:09:19;;;;;;;3.42;1.85;;;20.30;99.90;;;;;;4997502;28;20057;-69
2022/08/30 09:11:46;;;;;;;1.80;1.55;;;20.40;99.90;;;;;;4979300;28;20319;-68
2022/08/30 09:14:20;;;;;;;2.00;1.40;;;20.40;99.90;;;;;;5013674;28;20030;-69
2022/08/30 09:17:10;;;;;;;2.30;1.38;;;20.50;99.90;;;;;;4997405;28;20307;-68
2022/08/30 09:19:39;;;;;;;2.13;1.52;;;20.60;99.30;;;;;;4995804;28;20033;-68
2022/08/30 09:22:25;;;;;;;4.45;1.58;;;20.80;99.90;;;;;;4996119;28;20045;-68
2022/08/30 09:25:05;;;;;;;3.60;1.60;;;20.80;99.30;;;;;;5015230;28;20034;-69
2022/08/30 09:27:31;;;;;;;3.08;1.33;;;20.90;97.60;;;;;;5015395;28;20092;-68
2022/08/30 09:30:14;;;;;;;1.88;1.35;;;21.00;97.70;;;;;;5009278;28;20041;-69
2022/08/30 09:33:01;;;;;;;2.30;1.35;;;21.10;97.70;;;;;;5015536;28;20107;-69
2022/08/30 09:35:47;;;;;;;4.22;2.20;;;21.20;98.10;;;;;;4976328;28;20053;-68
2022/08/30 09:38:25;;;;;;;3.83;1.60;;;21.30;95.90;;;;;;4993361;28;20037;-69
2022/08/30 09:40:56;;;;;;;1.63;1.38;;;21.40;96.90;;;;;;4993327;28;20043;-69
2022/08/30 09:43:29;;;;;;;1.67;1.30;;;21.40;96.60;;;;;;4976705;28;20038;-69
2022/08/30 09:46:09;;;;;;;2.75;1.40;;;21.40;96.70;;;;;;4998224;28;20516;-69
2022/08/30 09:48:39;;;;;;;2.72;1.35;;;21.40;95.90;;;;;;4975429;28;20140;-69
2022/08/30 09:51:14;;;;;;;3.25;1.48;;;21.50;95.90;;;;;;4995332;28;20173;-69
2022/08/30 09:53:42;;;;;;;3.70;1.50;;;21.60;93.80;;;;;;4993374;28;20120;-69
2022/08/30 09:56:26;;;;;;;3.25;1.42;;;21.60;95.40;;;;;;4992711;28;20111;-69
2022/08/30 09:59:10;;;;;;;2.33;1.60;;;21.60;94.40;;;;;;4994766;28;20034;-70
2022/08/30 10:01:41;;;;;;;1.85;1.42;;;21.70;95.90;;;;;;4993753;28;20411;-69
2022/08/30 10:04:23;;;;;;;6.88;2.33;;;21.80;94.50;;;;;;4977254;28;20046;-69
2022/08/30 10:06:54;;;;;;;3.05;1.45;;;22.00;94.90;;;;;;4995212;28;20364;-69
2022/08/30 10:09:37;;;;;;;3.85;1.33;;;22.10;95.10;;;;;;4993251;28;20042;-70
2022/08/30 10:12:41;;;;;;;1.75;1.08;;;22.30;94.30;;;;;;5005910;28;20034;-69
2022/08/30 10:15:22;;;;;;;3.20;1.52;;;22.20;91.30;;;;;;4977459;28;20038;-70
2022/08/30 10:18:06;;;;;;;3.45;1.95;;;22.30;93.10;;;;;;4992938;28;20038;-70
2022/08/30 10:20:38;;;;;;;1.55;1.15;;;22.40;92.00;;;;;;4989115;28;20038;-69
2022/08/30 10:23:07;;;;;;;3.30;1.30;;;22.40;92.40;;;;;;4994793;28;20030;-69
2022/08/30 10:25:38;;;;;;;3.13;1.40;;;22.40;91.80;;;;;;4995162;28;20572;-69
2022/08/30 10:28:18;;;;;;;4.00;1.70;;;22.50;90.00;;;;;;4993703;28;20092;-69
2022/08/30 10:30:54;;;;;;;2.33;1.58;;;22.60;90.00;;;;;;4975017;28;20392;-69
2022/08/30 10:33:27;;;;;;;3.83;1.40;;;22.60;87.80;;;;;;4993750;28;20393;-69
2022/08/30 10:35:57;;;;;;;2.35;1.50;;;22.70;88.00;;;;;;4993723;28;20051;-69
2022/08/30 10:38:36;;;;;;;2.00;1.13;;;22.70;86.70;;;;;;5012617;28;20045;-69
2022/08/30 10:41:28;;;;;;;2.70;1.42;;;22.70;84.40;;;;;;5012282;28;20041;-69
2022/08/30 10:44:14;;;;;;;1.90;1.38;;;22.70;84.80;;;;;;5012293;28;20064;-69
2022/08/30 10:47:16;;;;;;;3.40;1.40;;;22.70;83.30;;;;;;5014696;28;20487;-69
2022/08/30 10:49:48;;;;;;;2.70;1.42;;;22.70;85.80;;;;;;4984050;28;20053;-70
2022/08/30 10:52:34;;;;;;;1.77;1.30;;;22.90;86.90;;;;;;5012743;28;20061;-70
2022/08/30 10:55:24;;;;;;;4.30;1.58;;;23.10;84.70;;;;;;5013782;28;20654;-70
2022/08/30 10:57:51;;;;;;;8.15;1.60;;;23.20;83.90;;;;;;5012139;28;20029;-70
2022/08/30 11:00:28;;;;;;;3.63;1.95;;;23.30;84.90;;;;;;5025351;28;20087;-70
2022/08/30 11:03:18;;;;;;;1.92;1.33;;;23.40;84.70;;;;;;4991447;28;20061;-70
2022/08/30 11:06:25;;;;;;;1.63;1.40;;;23.40;83.30;;;;;;5010275;28;20053;-70
2022/08/30 11:09:00;;;;;;;1.92;1.30;;;23.20;83.20;;;;;;4991253;28;20041;-70
2022/08/30 11:11:34;;;;;;;3.22;1.23;;;23.20;85.10;;;;;;5008311;28;20109;-69
2022/08/30 11:14:05;;;;;;;3.67;1.40;;;23.30;84.50;;;;;;4985223;28;20045;-70
2022/08/30 11:16:51;;;;;;;7.10;1.77;;;23.20;84.60;;;;;;4982025;28;20522;-70
2022/08/30 11:19:25;;;;;;;2.45;1.38;;;23.30;82.30;;;;;;5000508;28;20288;-70
2022/08/30 11:22:06;;;;;;;4.43;1.38;;;23.30;83.40;;;;;;4999593;28;20395;-70
2022/08/30 11:25:00;;;;;;;2.75;1.27;;;23.30;83.60;;;;;;5000318;28;20060;-70
2022/08/30 11:27:58;;;;;;;2.17;1.42;;;23.40;84.50;;;;;;4999116;28;20045;-70
2022/08/30 11:30:24;;;;;;;1.63;1.08;;;23.40;84.50;;;;;;4954110;28;20057;-70
2022/08/30 11:33:03;;;;;;;3.67;1.20;;;23.60;84.70;;;;;;4991336;28;20442;-70
2022/08/30 11:35:51;;;;;;;1.88;1.00;;;23.70;82.00;;;;;;4975857;28;20404;-70
2022/08/30 11:38:25;;;;;;;3.10;1.15;;;23.80;83.20;;;;;;4978302;28;20380;-70
2022/08/30 11:40:54;;;;;;;1.70;1.38;;;23.90;81.60;;;;;;4994814;28;20114;-70
2022/08/30 11:43:35;;;;;;;2.15;1.25;;;23.80;81.20;;;;;;4980350;28;20046;-69
2022/08/30 11:46:25;;;;;;;3.80;1.25;;;23.80;80.50;;;;;;4980661;28;20049;-70
2022/08/30 11:49:12;;;;;;;1.92;0.95;;;23.50;81.20;;;;;;4994325;28;20198;-70
2022/08/30 11:52:03;;;;;;;4.07;1.35;;;23.50;82.90;;;;;;4995561;28;20038;-70
2022/08/30 11:54:58;;;;;;;4.05;1.08;;;23.40;82.30;;;;;;4995070;28;20090;-70
2022/08/30 11:57:56;;;;;;;1.80;1.10;;;23.40;83.70;;;;;;4975768;28;20069;-70
2022/08/30 12:00:35;;;;;;;2.83;1.25;;;23.70;83.30;;;;;;4990145;28;20056;-70
2022/08/30 12:03:25;;;;;;;2.10;1.52;;;23.80;83.00;;;;;;4960667;28;20077;-70
2022/08/30 12:05:58;;;;;;;4.20;1.30;;;23.90;82.20;;;;;;4977007;28;20053;-70
2022/08/30 12:08:35;;;;;;;1.90;1.20;;;23.70;82.10;;;;;;4995205;28;20134;-70
2022/08/30 12:11:01;;;;;;;1.17;1.02;;;23.30;81.50;;;;;;4996394;28;20092;-70
2022/08/30 12:13:36;;;;;;;3.80;1.50;;;23.00;83.30;;;;;;4960770;28;20108;-70
2022/08/30 12:16:01;;;;;;;2.92;1.67;;;23.00;84.10;;;;;;4994547;28;20630;-70
2022/08/30 12:18:36;;;;;;;2.97;1.00;;;23.10;84.50;;;;;;4976986;28;20042;-70
2022/08/30 12:21:19;;;;;;;4.00;1.38;;;23.20;83.90;;;;;;4978999;28;20096;-70
2022/08/30 12:24:06;;;;;;;1.52;1.10;;;23.10;82.80;;;;;;4998703;28;20718;-70
2022/08/30 12:26:41;;;;;;;1.25;1.05;;;23.00;83.70;;;;;;5004019;28;20034;-70
2022/08/30 12:29:18;;;;;;;1.90;1.20;;;23.00;84.00;;;;;;5009257;28;20057;-70
2022/08/30 12:31:54;;;;;;;2.00;1.38;;;22.90;83.60;;;;;;4991397;28;20046;-70
2022/08/30 12:34:27;;;;;;;1.40;1.10;;;22.80;83.80;;;;;;4985694;28;20069;-70
2022/08/30 12:37:06;;;;;;;1.83;1.08;;;22.70;85.30;;;;;;5007638;28;20084;-69
2022/08/30 12:39:41;;;;;;;2.72;1.20;;;22.80;85.10;;;;;;5005865;28;20042;-70
2022/08/30 12:42:19;;;;;;;6.50;1.75;;;23.00;85.90;;;;;;5008254;28;20121;-70
2022/08/30 12:44:46;;;;;;;4.50;1.20;;;23.00;86.90;;;;;;4992457;28;20073;-70
2022/08/30 12:47:16;;;;;;;2.05;1.17;;;23.20;88.10;;;;;;5010348;28;20517;-69
2022/08/30 12:49:45;;;;;;;3.20;1.10;;;23.40;85.90;;;;;;4995563;28;20048;-69
2022/08/30 12:52:16;;;;;;;3.58;1.52;;;23.60;85.10;;;;;;4992058;28;20052;-70
2022/08/30 12:54:44;;;;;;;1.58;1.10;;;23.80;84.40;;;;;;5009479;28;20081;-69
2022/08/30 12:57:12;;;;;;;2.03;1.05;;;23.70;83.80;;;;;;4992301;28;20048;-69
2022/08/30 12:59:53;;;;;;;3.47;0.98;;;23.60;83.70;;;;;;5012016;28;20070;-70
2022/08/30 13:02:24;;;;;;;3.92;1.55;;;23.40;83.80;;;;;;5019414;28;20041;-70
2022/08/30 13:04:53;;;;;;;1.95;1.15;;;23.20;84.00;;;;;;5013856;28;20045;-70
2022/08/30 13:07:34;;;;;;;1.63;1.10;;;23.00;84.00;;;;;;4993813;28;20046;-69